Time;durP1;ratioP1;P1;durP2;ratioP2;P2;SDS_P1;SDS_P2;PMS_P1;PMS_P2;Temp;Humidity;BMP_temperature;BMP_pressure;BME280_temperature;BME280_humidity;BME280_pressure;Samples;Min_cycle;Max_cycle;Signal;HPM_P1;HPM_P2
2022/12/13 00:00:45;;;;;;;0.50;0.40;;;-3.50;99.90;;;;;;5033444;28;20678;-79
2022/12/13 00:03:11;;;;;;;0.98;0.98;;;-3.50;99.90;;;;;;5033030;28;20286;-79
2022/12/13 00:05:43;;;;;;;0.50;0.40;;;-3.60;99.90;;;;;;5032448;28;20286;-79
2022/12/13 00:08:10;;;;;;;0.50;0.43;;;-3.60;99.90;;;;;;5033369;28;20203;-78
2022/12/13 00:10:37;;;;;;;0.50;0.40;;;-3.60;99.90;;;;;;5030035;28;20222;-78
2022/12/13 00:13:04;;;;;;;1.95;1.85;;;-3.60;99.90;;;;;;5026353;28;20198;-79
2022/12/13 00:15:32;;;;;;;0.60;0.60;;;-3.70;99.90;;;;;;5032183;28;20230;-79
2022/12/13 00:17:59;;;;;;;0.50;0.40;;;-3.60;99.90;;;;;;5033239;28;20285;-79
2022/12/13 00:20:26;;;;;;;0.50;0.40;;;-3.60;99.90;;;;;;5032778;28;20258;-79
2022/12/13 00:22:53;;;;;;;0.40;0.40;;;-3.60;99.90;;;;;;5032453;28;20209;-79
2022/12/13 00:25:20;;;;;;;0.50;0.50;;;-3.70;99.90;;;;;;5031807;28;20274;-79
2022/12/13 00:27:47;;;;;;;0.50;0.40;;;-3.70;99.90;;;;;;5033061;28;20249;-79
2022/12/13 00:30:14;;;;;;;0.50;0.50;;;-3.60;99.90;;;;;;5032678;28;20207;-79
2022/12/13 00:32:42;;;;;;;0.50;0.40;;;-3.70;99.90;;;;;;5032514;28;20195;-79
2022/12/13 00:35:09;;;;;;;0.50;0.40;;;-3.70;99.90;;;;;;5030637;28;20322;-81
2022/12/13 00:37:36;;;;;;;0.52;0.50;;;-3.70;99.90;;;;;;5032746;28;20198;-78
2022/12/13 00:40:03;;;;;;;0.50;0.40;;;-3.80;99.90;;;;;;5032056;28;20215;-78
2022/12/13 00:42:30;;;;;;;1.63;1.52;;;-3.80;99.90;;;;;;5024401;28;20195;-79
2022/12/13 00:44:57;;;;;;;0.47;0.40;;;-3.90;99.90;;;;;;5031747;28;20237;-78
2022/12/13 00:47:23;;;;;;;3.60;3.45;;;-3.90;99.90;;;;;;5032211;28;20199;-79
2022/12/13 00:49:51;;;;;;;0.40;0.40;;;-3.90;99.90;;;;;;5032438;28;20207;-79
2022/12/13 00:52:18;;;;;;;0.70;0.70;;;-3.80;99.90;;;;;;5031571;28;20661;-78
2022/12/13 00:54:45;;;;;;;0.50;0.50;;;-3.80;99.90;;;;;;5031403;28;20191;-77
2022/12/13 00:57:12;;;;;;;0.50;0.50;;;-3.80;99.90;;;;;;5032552;28;20287;-78
2022/12/13 00:59:39;;;;;;;0.50;0.40;;;-3.90;99.90;;;;;;5032136;28;20231;-79
2022/12/13 01:02:06;;;;;;;0.50;0.40;;;-3.90;99.90;;;;;;5032075;28;20231;-77
2022/12/13 01:04:32;;;;;;;1.00;1.00;;;-4.00;99.90;;;;;;5031557;28;20588;-78
2022/12/13 01:07:01;;;;;;;0.50;0.50;;;-4.00;99.90;;;;;;5032063;28;20201;-79
2022/12/13 01:09:29;;;;;;;0.50;0.40;;;-3.90;99.90;;;;;;5031981;28;20234;-80
2022/12/13 01:11:58;;;;;;;0.50;0.40;;;-3.90;99.90;;;;;;5023828;28;20191;-76
2022/12/13 01:14:25;;;;;;;0.50;0.40;;;-4.00;99.90;;;;;;5036406;28;20289;-75
2022/12/13 01:16:54;;;;;;;0.40;0.40;;;-4.00;99.90;;;;;;5035157;28;20278;-78
2022/12/13 01:19:21;;;;;;;0.50;0.40;;;-4.00;99.90;;;;;;5032074;28;20252;-77
2022/12/13 01:21:48;;;;;;;1.45;1.35;;;-4.10;99.90;;;;;;5032186;28;20310;-79
2022/12/13 01:24:19;;;;;;;0.60;0.60;;;-4.10;99.90;;;;;;5031278;28;20195;-77
2022/12/13 01:26:46;;;;;;;0.40;0.40;;;-4.10;99.90;;;;;;5031868;28;20175;-78
2022/12/13 01:29:13;;;;;;;0.50;0.40;;;-4.10;99.90;;;;;;5031823;28;20297;-79
2022/12/13 01:31:40;;;;;;;0.50;0.40;;;-4.10;99.90;;;;;;5031315;28;20286;-76
2022/12/13 01:34:11;;;;;;;0.50;0.40;;;-4.10;99.90;;;;;;5031117;28;20206;-79
2022/12/13 01:36:39;;;;;;;0.50;0.40;;;-4.10;99.90;;;;;;5031754;28;20235;-79
2022/12/13 01:39:08;;;;;;;3.00;2.90;;;-4.20;99.90;;;;;;5031552;28;20301;-79
2022/12/13 01:41:36;;;;;;;0.43;0.40;;;-4.10;99.90;;;;;;5023121;28;20681;-79
2022/12/13 01:44:04;;;;;;;0.50;0.50;;;-4.10;99.90;;;;;;5030622;28;20231;-79
2022/12/13 01:46:32;;;;;;;0.50;0.47;;;-4.20;99.90;;;;;;5031751;28;20199;-78
2022/12/13 01:49:04;;;;;;;0.50;0.40;;;-4.20;99.90;;;;;;5031635;28;20198;-79
2022/12/13 01:51:37;;;;;;;0.50;0.50;;;-4.20;99.90;;;;;;5031315;28;20183;-79
2022/12/13 01:54:08;;;;;;;13.93;12.98;;;-4.10;99.90;;;;;;5030859;28;20278;-79
2022/12/13 01:56:40;;;;;;;0.60;0.50;;;-4.10;99.90;;;;;;5031094;28;20195;-79
2022/12/13 01:59:10;;;;;;;2.03;1.92;;;-4.10;99.90;;;;;;5031247;28;20322;-79
2022/12/13 02:01:38;;;;;;;0.50;0.40;;;-4.00;99.90;;;;;;5031270;28;20294;-79
2022/12/13 02:04:06;;;;;;;2.67;2.58;;;-4.00;99.90;;;;;;5034581;28;20550;-81
2022/12/13 02:06:35;;;;;;;0.50;0.40;;;-4.10;99.90;;;;;;5035082;28;20672;-77
2022/12/13 02:09:04;;;;;;;0.40;0.40;;;-4.10;99.90;;;;;;5035151;28;20225;-78
2022/12/13 02:11:32;;;;;;;0.45;0.45;;;-4.10;99.90;;;;;;5026860;28;20228;-79
2022/12/13 02:14:01;;;;;;;0.45;0.43;;;-4.10;99.90;;;;;;5034923;28;20197;-76
2022/12/13 02:16:40;;;;;;;0.43;0.40;;;-4.20;99.90;;;;;;5034982;28;20286;-79
2022/12/13 02:19:43;;;;;;;0.50;0.40;;;-4.20;99.90;;;;;;5035204;28;20210;-79
2022/12/13 02:22:21;;;;;;;0.60;0.40;;;-4.30;99.90;;;;;;5034803;28;20234;-79
2022/12/13 02:25:08;;;;;;;0.50;0.40;;;-4.20;99.90;;;;;;5030734;28;20570;-78
2022/12/13 02:27:50;;;;;;;0.70;0.70;;;-4.20;99.90;;;;;;5032464;28;20276;-78
2022/12/13 02:30:25;;;;;;;0.40;0.40;;;-4.20;99.90;;;;;;5035195;28;20298;-79
2022/12/13 02:33:10;;;;;;;0.50;0.40;;;-4.20;99.90;;;;;;5035312;28;20246;-78
2022/12/13 02:35:42;;;;;;;1.63;1.52;;;-4.20;99.90;;;;;;5034273;28;20211;-81
2022/12/13 02:38:14;;;;;;;2.25;2.15;;;-4.20;99.90;;;;;;5035338;28;20204;-79
2022/12/13 02:40:45;;;;;;;0.50;0.40;;;-4.10;99.90;;;;;;5033151;28;20310;-78
2022/12/13 02:43:16;;;;;;;0.40;0.40;;;-4.10;99.90;;;;;;5026548;28;20282;-79
2022/12/13 02:45:48;;;;;;;0.40;0.40;;;-4.10;99.90;;;;;;5033999;28;20328;-78
2022/12/13 02:48:18;;;;;;;0.40;0.40;;;-4.10;99.90;;;;;;5034655;28;20286;-78
2022/12/13 02:50:46;;;;;;;0.40;0.40;;;-4.20;99.90;;;;;;5035171;28;20774;-79
2022/12/13 02:53:13;;;;;;;0.40;0.40;;;-4.20;99.90;;;;;;5034910;28;20622;-79
2022/12/13 02:55:41;;;;;;;0.40;0.40;;;-4.20;99.90;;;;;;5033049;28;20209;-81
2022/12/13 02:58:11;;;;;;;4.68;4.30;;;-4.30;99.90;;;;;;5034859;28;20195;-76
2022/12/13 03:00:50;;;;;;;1.38;1.30;;;-4.30;99.90;;;;;;5034575;28;20219;-78
2022/12/13 03:03:26;;;;;;;0.50;0.50;;;-4.40;99.90;;;;;;5035198;28;20179;-79
2022/12/13 03:08:55;;;;;;;0.50;0.40;;;-4.40;99.90;;;;;;5034818;28;20175;-79
2022/12/13 03:14:13;;;;;;;1.00;1.00;;;-4.50;99.90;;;;;;4979282;28;20216;-79
2022/12/13 03:16:44;;;;;;;0.50;0.40;;;-4.50;99.90;;;;;;5025784;28;20290;-79
2022/12/13 03:19:13;;;;;;;0.50;0.40;;;-4.50;99.90;;;;;;5032635;28;20301;-79
2022/12/13 03:21:41;;;;;;;0.50;0.50;;;-4.50;99.90;;;;;;5027898;28;20203;-79
2022/12/13 03:24:08;;;;;;;0.40;0.40;;;-4.50;99.90;;;;;;5013843;28;20196;-78
2022/12/13 03:26:38;;;;;;;0.40;0.40;;;-4.50;99.90;;;;;;5016864;28;20191;-77
2022/12/13 03:29:05;;;;;;;1.05;1.05;;;-4.60;99.90;;;;;;5024460;28;20185;-79
2022/12/13 03:31:32;;;;;;;0.45;0.43;;;-4.50;99.90;;;;;;5024460;28;20198;-78
2022/12/13 03:34:01;;;;;;;0.40;0.40;;;-4.50;99.90;;;;;;5030752;28;20210;-78
2022/12/13 03:36:28;;;;;;;0.40;0.40;;;-4.60;99.90;;;;;;5033514;28;20282;-77
2022/12/13 03:38:56;;;;;;;0.98;0.98;;;-4.50;99.90;;;;;;5014279;28;20282;-77
2022/12/13 03:41:30;;;;;;;0.40;0.40;;;-4.40;99.90;;;;;;5014071;28;20196;-76
2022/12/13 03:43:57;;;;;;;0.40;0.40;;;-4.30;99.90;;;;;;5013636;28;20197;-77
2022/12/13 03:46:24;;;;;;;0.40;0.40;;;-4.30;99.90;;;;;;5018034;28;20206;-80
2022/12/13 03:48:50;;;;;;;0.40;0.40;;;-4.30;99.90;;;;;;5030464;28;20730;-76
2022/12/13 03:51:19;;;;;;;0.40;0.40;;;-4.30;99.90;;;;;;5024875;28;20225;-77
2022/12/13 03:53:45;;;;;;;0.40;0.40;;;-4.40;99.90;;;;;;5021396;28;20284;-76
2022/12/13 03:56:12;;;;;;;0.45;0.40;;;-4.40;99.90;;;;;;5018931;28;20279;-79
2022/12/13 03:58:41;;;;;;;0.40;0.40;;;-4.50;99.90;;;;;;5013328;28;20292;-77
2022/12/13 04:01:10;;;;;;;0.50;0.40;;;-4.50;99.90;;;;;;5022609;28;20685;-78
2022/12/13 04:03:38;;;;;;;0.40;0.40;;;-4.60;99.90;;;;;;5024048;28;20192;-76
2022/12/13 04:06:05;;;;;;;0.40;0.40;;;-4.60;99.90;;;;;;5012694;28;20231;-76
2022/12/13 04:08:36;;;;;;;0.50;0.40;;;-4.70;99.90;;;;;;5012626;28;20196;-79
2022/12/13 04:13:31;;;;;;;0.40;0.40;;;-4.70;99.90;;;;;;5011708;28;20216;-77
2022/12/13 04:13:50;;;;;;;0.60;0.60;;;-4.70;99.90;;;;;;5020920;28;20219;-77
2022/12/13 04:16:17;;;;;;;0.40;0.40;;;-4.70;99.90;;;;;;5005330;28;20192;-77
2022/12/13 04:18:44;;;;;;;0.50;0.40;;;-4.80;99.90;;;;;;5013618;28;20457;-78
2022/12/13 04:21:11;;;;;;;0.50;0.47;;;-4.80;99.90;;;;;;5013019;28;20219;-78
2022/12/13 04:23:39;;;;;;;0.40;0.40;;;-4.80;99.90;;;;;;5013573;28;20557;-77
2022/12/13 04:26:06;;;;;;;0.40;0.40;;;-4.70;99.90;;;;;;5011558;28;20670;-76
2022/12/13 04:28:33;;;;;;;0.40;0.40;;;-4.80;99.90;;;;;;5013548;28;20275;-78
2022/12/13 04:30:59;;;;;;;0.50;0.40;;;-4.80;99.90;;;;;;5012834;28;20298;-76
2022/12/13 04:33:26;;;;;;;2.35;2.15;;;-4.80;99.90;;;;;;5012014;28;20729;-77
2022/12/13 04:35:53;;;;;;;7.90;7.55;;;-4.80;99.90;;;;;;4995826;28;20211;-77
2022/12/13 04:38:20;;;;;;;0.50;0.40;;;-4.80;99.90;;;;;;4993096;28;20247;-76
2022/12/13 04:40:48;;;;;;;0.50;0.40;;;-4.80;99.90;;;;;;5002593;28;20317;-77
2022/12/13 04:43:15;;;;;;;0.50;0.40;;;-4.70;99.90;;;;;;5023297;28;20294;-77
2022/12/13 04:45:42;;;;;;;0.40;0.40;;;-4.80;99.90;;;;;;5031417;28;20285;-78
2022/12/13 04:48:09;;;;;;;0.40;0.40;;;-4.80;99.90;;;;;;5032710;28;20287;-75
2022/12/13 04:50:36;;;;;;;0.80;0.80;;;-4.80;99.90;;;;;;5032237;28;20325;-78
2022/12/13 04:53:02;;;;;;;3.35;3.10;;;-4.80;99.90;;;;;;5032593;28;20191;-77
2022/12/13 04:55:29;;;;;;;0.50;0.40;;;-4.80;99.90;;;;;;5031563;28;20292;-78
2022/12/13 04:57:57;;;;;;;0.40;0.40;;;-4.90;99.90;;;;;;5032480;28;20194;-78
2022/12/13 05:00:24;;;;;;;0.40;0.40;;;-4.90;99.90;;;;;;5031889;28;20306;-78
2022/12/13 05:02:51;;;;;;;0.50;0.50;;;-5.00;99.90;;;;;;5032299;28;20307;-76
2022/12/13 05:05:18;;;;;;;0.40;0.40;;;-5.00;99.90;;;;;;5031764;28;20195;-76
2022/12/13 05:07:45;;;;;;;0.50;0.50;;;-5.00;99.90;;;;;;5032314;28;20313;-78
2022/12/13 05:10:12;;;;;;;0.50;0.40;;;-5.00;99.90;;;;;;5031551;28;20600;-75
2022/12/13 05:12:39;;;;;;;0.50;0.40;;;-5.00;99.90;;;;;;5024139;28;20200;-78
2022/12/13 05:15:08;;;;;;;0.50;0.50;;;-5.00;99.90;;;;;;5031733;28;20206;-77
2022/12/13 05:17:35;;;;;;;0.43;0.40;;;-5.00;99.90;;;;;;5031966;28;20191;-77
2022/12/13 05:20:02;;;;;;;0.50;0.40;;;-5.10;99.90;;;;;;5031472;28;20215;-77
2022/12/13 05:22:29;;;;;;;0.40;0.40;;;-5.10;99.90;;;;;;5032395;28;20203;-77
2022/12/13 05:24:56;;;;;;;0.90;0.88;;;-5.10;99.90;;;;;;5031126;28;20203;-79
2022/12/13 05:27:23;;;;;;;0.50;0.50;;;-5.00;99.90;;;;;;5031799;28;20194;-76
2022/12/13 05:29:49;;;;;;;2.17;2.05;;;-5.10;99.90;;;;;;5031790;28;20281;-77
2022/12/13 05:32:18;;;;;;;0.50;0.40;;;-5.10;99.90;;;;;;5030682;28;20191;-79
2022/12/13 05:34:44;;;;;;;0.77;0.60;;;-5.00;99.90;;;;;;5031347;28;20201;-78
2022/12/13 05:37:11;;;;;;;0.50;0.40;;;-5.00;99.90;;;;;;5031149;28;20265;-77
2022/12/13 05:39:38;;;;;;;0.50;0.40;;;-5.00;99.90;;;;;;5031209;28;20306;-78
2022/12/13 05:42:05;;;;;;;4.57;4.28;;;-5.00;99.90;;;;;;5015880;28;20198;-79
2022/12/13 05:44:32;;;;;;;2.45;1.27;;;-4.90;99.90;;;;;;5029126;28;20677;-77
2022/12/13 05:47:00;;;;;;;0.50;0.50;;;-5.00;99.90;;;;;;5030982;28;20287;-76
2022/12/13 05:49:28;;;;;;;4.43;4.22;;;-5.00;99.90;;;;;;5031981;28;20250;-77
2022/12/13 05:51:55;;;;;;;0.50;0.40;;;-5.00;99.90;;;;;;5031306;28;20204;-77
2022/12/13 05:54:22;;;;;;;0.40;0.40;;;-5.00;99.90;;;;;;5031408;28;20290;-77
2022/12/13 05:56:48;;;;;;;0.82;0.82;;;-5.10;99.90;;;;;;5017640;28;20194;-78
2022/12/13 05:59:15;;;;;;;0.50;0.40;;;-5.10;99.90;;;;;;5011789;28;20256;-76
2022/12/13 06:01:42;;;;;;;5.40;5.15;;;-5.10;99.90;;;;;;5011439;28;20307;-77
2022/12/13 06:04:09;;;;;;;0.40;0.40;;;-5.10;99.90;;;;;;5010698;28;20222;-76
2022/12/13 06:06:37;;;;;;;0.40;0.40;;;-5.20;99.90;;;;;;5020206;28;20196;-77
2022/12/13 06:09:04;;;;;;;0.45;0.40;;;-5.20;99.90;;;;;;5024437;28;20565;-77
2022/12/13 06:11:31;;;;;;;0.40;0.40;;;-5.30;99.90;;;;;;5019834;28;20208;-77
2022/12/13 06:13:57;;;;;;;0.50;0.40;;;-5.20;99.90;;;;;;5009735;28;20282;-77
2022/12/13 06:16:24;;;;;;;1.23;0.88;;;-5.20;99.90;;;;;;5010939;28;20196;-77
2022/12/13 06:18:52;;;;;;;0.60;0.60;;;-5.30;99.90;;;;;;5011147;28;20196;-78
2022/12/13 06:21:19;;;;;;;1.67;1.58;;;-5.20;99.90;;;;;;5011680;28;20219;-77
2022/12/13 06:23:47;;;;;;;1.60;1.60;;;-5.10;99.90;;;;;;5006981;28;20199;-77
2022/12/13 06:26:14;;;;;;;0.60;0.60;;;-5.00;99.90;;;;;;5006496;28;20199;-77
2022/12/13 06:28:41;;;;;;;0.43;0.40;;;-5.00;99.90;;;;;;5010843;28;20207;-78
2022/12/13 06:31:08;;;;;;;2.78;2.67;;;-5.00;99.90;;;;;;5009673;28;20806;-77
2022/12/13 06:33:35;;;;;;;0.50;0.40;;;-5.10;99.90;;;;;;5012216;28;20206;-78
2022/12/13 06:36:03;;;;;;;0.50;0.40;;;-5.10;99.90;;;;;;5017170;28;20201;-78
2022/12/13 06:38:31;;;;;;;2.45;1.25;;;-5.10;99.90;;;;;;5014478;28;20188;-77
2022/12/13 06:41:08;;;;;;;0.50;0.40;;;-5.10;99.90;;;;;;5011071;28;20220;-78
2022/12/13 06:43:35;;;;;;;0.93;0.90;;;-5.10;99.90;;;;;;5011053;28;20203;-80
2022/12/13 06:46:03;;;;;;;3.53;3.25;;;-5.20;99.90;;;;;;5010258;28;20192;-79
2022/12/13 06:48:30;;;;;;;0.40;0.40;;;-5.10;99.90;;;;;;5010896;28;20192;-79
2022/12/13 06:51:00;;;;;;;1.35;1.25;;;-5.10;99.90;;;;;;5014434;28;20243;-78
2022/12/13 06:53:27;;;;;;;1.58;1.58;;;-5.10;99.90;;;;;;5015598;28;20207;-79
2022/12/13 06:55:54;;;;;;;0.50;0.50;;;-5.10;99.90;;;;;;5013623;28;20192;-80
2022/12/13 06:58:22;;;;;;;3.17;2.97;;;-5.00;99.90;;;;;;5014373;28;20196;-79
2022/12/13 07:00:49;;;;;;;0.70;0.70;;;-5.00;99.90;;;;;;5014194;28;20311;-78
2022/12/13 07:03:16;;;;;;;0.50;0.40;;;-5.00;99.90;;;;;;5014448;28;20203;-78
2022/12/13 07:05:44;;;;;;;0.40;0.40;;;-5.00;99.90;;;;;;5017284;28;20278;-79
2022/12/13 07:08:10;;;;;;;9.30;3.20;;;-5.10;99.90;;;;;;5025437;28;20206;-76
2022/12/13 07:10:40;;;;;;;2.05;1.95;;;-5.00;99.90;;;;;;5033795;28;20317;-79
2022/12/13 07:13:07;;;;;;;0.50;0.40;;;-5.00;99.90;;;;;;5034160;28;20200;-79
2022/12/13 07:15:35;;;;;;;0.47;0.40;;;-5.10;99.90;;;;;;5032907;28;20560;-79
2022/12/13 07:18:02;;;;;;;4.07;3.78;;;-5.20;99.90;;;;;;5033625;28;20355;-78
2022/12/13 07:20:28;;;;;;;0.40;0.40;;;-5.10;99.90;;;;;;5033345;28;20226;-80
2022/12/13 07:22:56;;;;;;;0.80;0.80;;;-5.20;99.90;;;;;;5034306;28;20227;-76
2022/12/13 07:25:23;;;;;;;0.50;0.40;;;-5.10;99.90;;;;;;5032895;28;20707;-76
2022/12/13 07:27:56;;;;;;;0.47;0.40;;;-5.20;99.90;;;;;;5034174;28;20281;-76
2022/12/13 07:30:23;;;;;;;0.40;0.40;;;-5.20;99.90;;;;;;5033489;28;20760;-77
2022/12/13 07:32:51;;;;;;;0.50;0.40;;;-5.20;99.90;;;;;;5032267;28;20195;-77
2022/12/13 07:35:18;;;;;;;0.50;0.40;;;-5.20;99.90;;;;;;5032939;28;20286;-76
2022/12/13 07:37:45;;;;;;;0.40;0.40;;;-5.10;99.90;;;;;;5025499;28;20671;-76
2022/12/13 07:40:12;;;;;;;0.43;0.43;;;-5.10;99.90;;;;;;5033462;28;20230;-76
2022/12/13 07:42:39;;;;;;;0.40;0.40;;;-5.10;99.90;;;;;;5033623;28;20713;-77
2022/12/13 07:45:07;;;;;;;0.50;0.40;;;-5.10;99.90;;;;;;5032515;28;20218;-74
2022/12/13 07:47:34;;;;;;;0.43;0.40;;;-5.10;99.90;;;;;;5033118;28;20231;-78
2022/12/13 07:50:02;;;;;;;1.67;1.67;;;-5.10;99.90;;;;;;5033486;28;20211;-78
2022/12/13 07:52:29;;;;;;;0.40;0.40;;;-5.10;99.90;;;;;;5033360;28;20198;-78
2022/12/13 07:54:56;;;;;;;0.40;0.40;;;-5.10;99.90;;;;;;5032696;28;20195;-78
2022/12/13 07:57:22;;;;;;;0.43;0.40;;;-5.10;99.90;;;;;;5033136;28;20306;-77
2022/12/13 07:59:49;;;;;;;1.45;1.45;;;-5.00;99.90;;;;;;5033030;28;20585;-77
2022/12/13 08:02:16;;;;;;;0.60;0.60;;;-5.00;99.90;;;;;;5032792;28;20226;-76
2022/12/13 08:04:43;;;;;;;0.40;0.40;;;-5.00;99.90;;;;;;5032591;28;20195;-77
2022/12/13 08:07:12;;;;;;;0.45;0.40;;;-4.90;99.90;;;;;;5027350;28;20235;-75
2022/12/13 08:09:38;;;;;;;0.50;0.43;;;-4.80;99.90;;;;;;5030453;28;20555;-77
2022/12/13 08:12:06;;;;;;;2.15;2.05;;;-4.60;99.90;;;;;;5032715;28;20282;-77
2022/12/13 08:14:32;;;;;;;0.93;0.93;;;-4.20;99.90;;;;;;5032647;28;20669;-77
2022/12/13 08:16:59;;;;;;;2.35;2.15;;;-3.90;99.90;;;;;;5033010;28;20660;-78
2022/12/13 08:19:26;;;;;;;0.98;0.98;;;-3.60;99.90;;;;;;5033397;28;20223;-77
2022/12/13 08:21:55;;;;;;;0.50;0.40;;;-3.40;99.90;;;;;;5032735;28;20588;-77
2022/12/13 08:24:24;;;;;;;0.93;0.93;;;-3.10;99.90;;;;;;5032237;28;20972;-79
2022/12/13 08:26:51;;;;;;;0.50;0.50;;;-2.70;99.90;;;;;;5033420;28;20214;-77
2022/12/13 08:29:18;;;;;;;0.50;0.40;;;-2.40;99.90;;;;;;5033553;28;20212;-77
2022/12/13 08:31:45;;;;;;;0.70;0.68;;;-2.30;99.90;;;;;;5031743;28;20286;-77
2022/12/13 08:34:11;;;;;;;0.50;0.50;;;-2.30;99.90;;;;;;5031821;28;20203;-77
2022/12/13 08:36:38;;;;;;;0.50;0.40;;;-2.30;99.90;;;;;;5030352;28;20196;-77
2022/12/13 08:39:05;;;;;;;0.50;0.50;;;-2.30;99.90;;;;;;5026320;28;20635;-78
2022/12/13 08:41:33;;;;;;;0.50;0.50;;;-2.30;99.90;;;;;;5032267;28;20211;-77
2022/12/13 08:44:00;;;;;;;2.30;2.20;;;-2.20;99.90;;;;;;5031705;28;20237;-77
2022/12/13 08:46:27;;;;;;;0.50;0.50;;;-1.90;99.90;;;;;;5032619;28;20272;-78
2022/12/13 08:48:54;;;;;;;0.50;0.40;;;-1.60;99.90;;;;;;5032778;28;20621;-78
2022/12/13 08:51:22;;;;;;;0.60;0.60;;;-1.00;99.90;;;;;;5032350;28;20298;-77
2022/12/13 08:53:49;;;;;;;0.50;0.40;;;-0.50;99.90;;;;;;5032294;28;20202;-77
2022/12/13 08:56:17;;;;;;;0.50;0.40;;;0.10;99.90;;;;;;5031750;28;20205;-77
2022/12/13 08:58:50;;;;;;;0.50;0.40;;;0.60;99.90;;;;;;5032314;28;20199;-78
2022/12/13 09:01:17;;;;;;;0.50;0.50;;;1.10;99.90;;;;;;5037259;28;20218;-76
2022/12/13 09:03:45;;;;;;;0.50;0.40;;;1.40;99.90;;;;;;5032560;28;20226;-75
2022/12/13 09:06:15;;;;;;;0.50;0.40;;;1.80;99.90;;;;;;5031624;28;20219;-78
2022/12/13 09:08:42;;;;;;;0.50;0.40;;;2.20;99.90;;;;;;5023634;28;20195;-78
2022/12/13 09:11:11;;;;;;;2.67;1.13;;;2.40;99.90;;;;;;5032140;28;20250;-78
2022/12/13 09:13:39;;;;;;;1.70;1.60;;;3.00;99.90;;;;;;5031661;28;20223;-79
2022/12/13 09:16:09;;;;;;;0.50;0.40;;;3.40;99.90;;;;;;5031626;28;20282;-79
2022/12/13 09:18:36;;;;;;;0.63;0.60;;;4.00;99.90;;;;;;5032974;28;20653;-78
2022/12/13 09:21:06;;;;;;;1.55;1.45;;;4.40;99.90;;;;;;5032124;28;20227;-78
2022/12/13 09:23:33;;;;;;;0.60;0.50;;;4.40;99.90;;;;;;5032741;28;20534;-78
2022/12/13 09:26:03;;;;;;;0.50;0.45;;;4.70;99.90;;;;;;5031717;28;20202;-78
2022/12/13 09:28:30;;;;;;;2.17;2.08;;;5.10;99.90;;;;;;5031898;28;20255;-78
2022/12/13 09:30:58;;;;;;;2.22;2.00;;;5.20;99.90;;;;;;5031305;28;20219;-80
2022/12/13 09:33:26;;;;;;;0.80;0.80;;;5.30;99.90;;;;;;5030608;28;20203;-78
2022/12/13 09:35:53;;;;;;;0.50;0.50;;;5.30;99.90;;;;;;5031332;28;20222;-78
2022/12/13 09:38:20;;;;;;;0.50;0.40;;;6.10;99.90;;;;;;5023566;28;20302;-79
2022/12/13 09:40:49;;;;;;;0.50;0.50;;;6.20;99.90;;;;;;5031510;28;20246;-79
2022/12/13 09:43:23;;;;;;;0.50;0.40;;;6.00;99.90;;;;;;5031523;28;20720;-76
2022/12/13 09:45:50;;;;;;;0.50;0.40;;;5.50;99.90;;;;;;5030651;28;20197;-78
2022/12/13 09:48:19;;;;;;;0.50;0.40;;;4.90;99.90;;;;;;5031706;28;20289;-79
2022/12/13 09:50:48;;;;;;;0.50;0.43;;;4.40;99.90;;;;;;5031864;28;20211;-78
2022/12/13 09:53:18;;;;;;;1.15;1.15;;;4.20;99.90;;;;;;5031724;28;20195;-79
2022/12/13 09:55:47;;;;;;;0.60;0.60;;;4.20;99.90;;;;;;5030860;28;20764;-78
2022/12/13 09:58:20;;;;;;;0.50;0.50;;;4.50;99.90;;;;;;5031202;28;20282;-77
2022/12/13 10:00:48;;;;;;;0.75;0.75;;;5.10;99.90;;;;;;5031211;28;20310;-78
2022/12/13 10:03:17;;;;;;;0.50;0.40;;;5.50;99.90;;;;;;5032119;28;20199;-78
2022/12/13 10:05:56;;;;;;;0.50;0.40;;;5.50;99.90;;;;;;5030313;28;20239;-78
2022/12/13 10:08:25;;;;;;;0.55;0.55;;;5.20;99.90;;;;;;5023578;28;20183;-79
2022/12/13 10:10:52;;;;;;;0.50;0.50;;;5.10;99.90;;;;;;5030816;28;20314;-77
2022/12/13 10:13:24;;;;;;;1.15;0.80;;;5.20;99.90;;;;;;5031733;28;20199;-78
2022/12/13 10:15:58;;;;;;;0.50;0.45;;;5.20;99.90;;;;;;5030663;28;20291;-79
2022/12/13 10:18:32;;;;;;;1.23;1.13;;;5.00;99.90;;;;;;5032475;28;20591;-77
2022/12/13 10:21:03;;;;;;;0.98;0.98;;;4.80;99.90;;;;;;5030821;28;20585;-77
2022/12/13 10:23:30;;;;;;;0.50;0.40;;;4.40;99.90;;;;;;5031579;28;20610;-79
2022/12/13 10:25:57;;;;;;;0.50;0.40;;;4.10;99.90;;;;;;5034146;28;20242;-77
2022/12/13 10:28:27;;;;;;;0.50;0.40;;;4.00;99.90;;;;;;5035458;28;20191;-78
2022/12/13 10:30:56;;;;;;;0.50;0.50;;;3.90;99.90;;;;;;5034154;28;20302;-77
2022/12/13 10:33:27;;;;;;;0.50;0.40;;;4.00;99.90;;;;;;5034075;28;20229;-77
2022/12/13 10:36:14;;;;;;;0.50;0.50;;;4.20;99.90;;;;;;5034182;28;20274;-76
2022/12/13 10:38:44;;;;;;;0.50;0.40;;;4.30;99.90;;;;;;5024655;28;20200;-77
2022/12/13 10:41:33;;;;;;;0.50;0.40;;;4.10;99.90;;;;;;5015098;28;20314;-78
2022/12/13 10:44:17;;;;;;;0.50;0.50;;;4.20;99.90;;;;;;5014713;28;20631;-78
2022/12/13 10:46:50;;;;;;;0.60;0.60;;;4.30;99.90;;;;;;5013644;28;20195;-79
2022/12/13 10:49:19;;;;;;;0.50;0.40;;;4.30;99.90;;;;;;5015495;28;20638;-76
2022/12/13 10:51:49;;;;;;;0.50;0.40;;;4.20;99.90;;;;;;5014405;28;20680;-77
2022/12/13 10:54:24;;;;;;;3.03;2.83;;;4.10;99.90;;;;;;5014387;28;20222;-78
2022/12/13 10:56:52;;;;;;;0.50;0.50;;;4.00;99.90;;;;;;5015731;28;20187;-78
2022/12/13 10:59:33;;;;;;;1.77;1.67;;;3.90;99.90;;;;;;5014453;28;20698;-79
2022/12/13 11:02:02;;;;;;;0.50;0.40;;;3.80;99.90;;;;;;5014316;28;20219;-77
2022/12/13 11:04:30;;;;;;;0.50;0.40;;;3.60;99.90;;;;;;5013968;28;20334;-77
2022/12/13 11:07:00;;;;;;;0.50;0.40;;;3.50;99.90;;;;;;5023782;28;20188;-78
2022/12/13 11:09:30;;;;;;;0.50;0.40;;;3.60;99.90;;;;;;5030876;28;20322;-76
2022/12/13 11:12:00;;;;;;;0.50;0.40;;;3.60;99.90;;;;;;5034338;28;20618;-78
2022/12/13 11:14:31;;;;;;;1.42;1.33;;;3.50;99.90;;;;;;5033596;28;20231;-77
2022/12/13 11:17:00;;;;;;;0.75;0.75;;;3.50;99.90;;;;;;5033648;28;20191;-78
2022/12/13 11:19:37;;;;;;;0.50;0.50;;;3.40;99.90;;;;;;5034534;28;20215;-76
2022/12/13 11:22:06;;;;;;;0.50;0.40;;;3.40;99.90;;;;;;5034069;28;20298;-75
2022/12/13 11:24:35;;;;;;;0.50;0.50;;;3.20;99.90;;;;;;5033409;28;20195;-78
2022/12/13 11:27:11;;;;;;;0.50;0.50;;;3.30;99.90;;;;;;5033884;28;20298;-78
2022/12/13 11:29:55;;;;;;;0.50;0.40;;;3.30;99.90;;;;;;5033642;28;20218;-78
2022/12/13 11:32:31;;;;;;;0.50;0.40;;;3.50;99.90;;;;;;5032491;28;20223;-78
2022/12/13 11:35:04;;;;;;;0.50;0.40;;;3.70;99.90;;;;;;5032439;28;20286;-78
2022/12/13 11:37:41;;;;;;;0.50;0.40;;;3.70;99.90;;;;;;5032414;28;20230;-78
2022/12/13 11:40:14;;;;;;;0.63;0.63;;;3.60;99.90;;;;;;5013833;28;20376;-78
2022/12/13 11:42:45;;;;;;;0.50;0.50;;;3.30;99.90;;;;;;5013508;28;20219;-80
2022/12/13 11:45:16;;;;;;;1.30;1.30;;;3.20;99.90;;;;;;5012930;28;20200;-78
2022/12/13 11:47:47;;;;;;;0.50;0.40;;;3.20;99.90;;;;;;5013020;28;20188;-78
2022/12/13 11:50:17;;;;;;;0.50;0.40;;;3.30;99.90;;;;;;5013256;28;20745;-78
2022/12/13 11:52:50;;;;;;;2.78;2.53;;;3.80;99.90;;;;;;5013583;28;20180;-78
2022/12/13 11:55:22;;;;;;;1.13;1.13;;;4.30;99.90;;;;;;5013007;28;20181;-78
2022/12/13 11:57:56;;;;;;;0.50;0.40;;;4.90;99.90;;;;;;5012815;28;20760;-78
2022/12/13 12:00:34;;;;;;;0.93;0.70;;;5.50;99.90;;;;;;5013079;28;20555;-78
2022/12/13 12:03:16;;;;;;;0.50;0.40;;;5.90;99.90;;;;;;5012990;28;20204;-78
2022/12/13 12:05:48;;;;;;;2.15;1.95;;;6.10;99.90;;;;;;5016371;28;20309;-78
2022/12/13 12:08:23;;;;;;;0.50;0.50;;;6.30;99.90;;;;;;5024326;28;20642;-77
2022/12/13 12:11:02;;;;;;;0.50;0.50;;;6.10;99.90;;;;;;5032659;28;20313;-77
2022/12/13 12:13:32;;;;;;;0.88;0.88;;;6.30;99.90;;;;;;5033358;28;20176;-77
2022/12/13 12:16:06;;;;;;;0.95;0.95;;;6.30;99.90;;;;;;5032617;28;20568;-78
2022/12/13 12:18:33;;;;;;;0.50;0.40;;;6.30;99.90;;;;;;5032639;28;20175;-77
2022/12/13 12:21:24;;;;;;;0.50;0.40;;;6.10;99.90;;;;;;5032548;28;20249;-79
2022/12/13 12:24:02;;;;;;;0.50;0.40;;;5.90;98.90;;;;;;5032605;28;20224;-76
2022/12/13 12:26:38;;;;;;;0.50;0.40;;;5.70;96.80;;;;;;5032670;28;20290;-78
2022/12/13 12:29:30;;;;;;;0.60;0.60;;;5.50;99.90;;;;;;5032618;28;20278;-79
2022/12/13 12:32:07;;;;;;;0.82;0.82;;;5.10;99.90;;;;;;5030557;28;20184;-78
2022/12/13 12:34:42;;;;;;;0.50;0.47;;;4.80;99.90;;;;;;5073798;22;20615;-75
2022/12/13 12:37:19;;;;;;;1.13;1.13;;;4.70;99.90;;;;;;5088990;28;20232;-75
2022/12/13 12:40:21;;;;;;;0.70;0.70;;;4.60;99.90;;;;;;5092453;28;20213;-75
2022/12/13 12:42:56;;;;;;;1.58;1.48;;;4.40;99.90;;;;;;5092550;28;20232;-75
2022/12/13 12:45:36;;;;;;;0.73;0.73;;;4.20;99.90;;;;;;5091185;28;20753;-74
2022/12/13 12:48:17;;;;;;;1.60;1.15;;;4.10;99.90;;;;;;5085769;28;20186;-74
2022/12/13 12:50:50;;;;;;;0.50;0.40;;;3.90;97.20;;;;;;5091670;28;20209;-75
2022/12/13 12:53:37;;;;;;;1.85;1.50;;;3.60;98.20;;;;;;5092740;28;20544;-75
2022/12/13 12:56:20;;;;;;;0.50;0.47;;;3.50;99.90;;;;;;5091515;28;20312;-76
2022/12/13 12:58:54;;;;;;;0.70;0.70;;;3.30;99.90;;;;;;5091192;28;20177;-75
2022/12/13 13:01:33;;;;;;;0.50;0.50;;;3.20;99.90;;;;;;5091992;28;20276;-76
2022/12/13 13:04:06;;;;;;;0.50;0.40;;;3.20;99.90;;;;;;5091164;28;20254;-76
2022/12/13 13:06:36;;;;;;;0.50;0.50;;;3.30;99.90;;;;;;5092098;28;20181;-76
2022/12/13 13:09:06;;;;;;;0.50;0.40;;;3.30;99.90;;;;;;5092563;28;20177;-74